Time;durP1;ratioP1;P1;durP2;ratioP2;P2;SDS_P1;SDS_P2;PMS_P1;PMS_P2;Temp;Humidity;BMP_temperature;BMP_pressure;BME280_temperature;BME280_humidity;BME280_pressure;Samples;Min_cycle;Max_cycle;Signal;HPM_P1;HPM_P2
2021/11/25 00:00:14;;;;;;;59.60;20.90;;;;;;;1.92;74.93;100393.23;102986;1312;25422;-58
2021/11/25 00:03:06;;;;;;;49.10;18.20;;;;;;;1.89;75.02;100390.54;102793;1312;22727;-59
2021/11/25 00:05:39;;;;;;;45.00;18.40;;;;;;;1.86;74.91;100385.17;102861;1312;24317;-56
2021/11/25 00:08:10;;;;;;;47.90;18.60;;;;;;;1.80;74.84;100388.55;102937;1313;22574;-58
2021/11/25 00:10:42;;;;;;;43.00;17.90;;;;;;;1.71;74.83;100381.91;102965;1313;22665;-58
2021/11/25 00:13:14;;;;;;;44.30;16.90;;;;;;;1.62;74.72;100382.43;103017;1318;24917;-57
2021/11/25 00:15:46;;;;;;;43.80;17.40;;;;;;;1.52;74.79;100381.02;102988;1318;22600;-57
2021/11/25 00:18:18;;;;;;;42.40;17.30;;;;;;;1.45;74.80;100371.67;103054;1313;26608;-57
2021/11/25 00:20:50;;;;;;;42.10;18.40;;;;;;;1.36;74.82;100373.54;102965;1313;22661;-57
2021/11/25 00:23:21;;;;;;;47.70;18.40;;;;;;;1.29;74.83;100370.10;102765;1312;22654;-57
2021/11/25 00:25:53;;;;;;;43.70;18.00;;;;;;;1.20;74.78;100370.05;103006;1313;26086;-57
2021/11/25 00:28:24;;;;;;;46.40;19.50;;;;;;;1.15;74.75;100366.82;102883;1312;23162;-57
2021/11/25 00:30:55;;;;;;;53.70;22.80;;;;;;;1.09;74.84;100368.55;102920;1319;23012;-57
2021/11/25 00:33:27;;;;;;;46.30;20.20;;;;;;;1.03;74.83;100369.95;102863;1317;22796;-57
2021/11/25 00:35:58;;;;;;;45.10;19.50;;;;;;;0.98;74.97;100369.06;102893;1312;23095;-57
2021/11/25 00:38:30;;;;;;;46.70;18.60;;;;;;;0.97;75.08;100364.61;102914;1312;22595;-57
2021/11/25 00:41:05;;;;;;;45.80;20.20;;;;;;;0.94;75.22;100357.34;102916;1312;27123;-58
2021/11/25 00:43:36;;;;;;;43.60;19.00;;;;;;;0.92;75.56;100356.27;102909;1313;22590;-56
2021/11/25 00:46:07;;;;;;;48.10;19.40;;;;;;;0.91;75.59;100349.52;102846;1313;22580;-58
2021/11/25 00:48:39;;;;;;;46.80;19.60;;;;;;;0.91;75.82;100341.91;102989;1319;22668;-57
2021/11/25 00:51:11;;;;;;;50.60;19.70;;;;;;;0.90;76.02;100334.94;103017;1316;22620;-57
2021/11/25 00:53:43;;;;;;;47.00;19.20;;;;;;;0.88;76.17;100331.27;102847;1312;24310;-57
2021/11/25 00:56:14;;;;;;;48.20;18.90;;;;;;;0.85;76.22;100329.89;102926;1319;22574;-58
2021/11/25 00:58:45;;;;;;;47.70;18.90;;;;;;;0.83;76.32;100331.64;102797;1313;22658;-58
2021/11/25 01:01:17;;;;;;;48.00;21.10;;;;;;;0.82;76.32;100323.27;102801;1313;24318;-57
2021/11/25 01:03:48;;;;;;;46.80;19.30;;;;;;;0.81;76.44;100325.08;102993;1312;22578;-59
2021/11/25 01:06:20;;;;;;;53.80;22.80;;;;;;;0.79;76.38;100326.27;103173;1313;22525;-56
2021/11/25 01:08:51;;;;;;;52.10;20.90;;;;;;;0.76;76.44;100321.13;103255;1318;22564;-58
2021/11/25 01:11:25;;;;;;;57.00;22.30;;;;;;;0.75;76.65;100310.70;102970;1316;22570;-57
2021/11/25 01:13:56;;;;;;;54.70;21.00;;;;;;;0.71;76.52;100309.95;102850;1312;23161;-58
2021/11/25 01:16:28;;;;;;;52.10;21.00;;;;;;;0.67;76.60;100307.89;102825;1318;22654;-58
2021/11/25 01:18:59;;;;;;;53.00;21.20;;;;;;;0.65;76.74;100306.73;102938;1312;23536;-58
2021/11/25 01:21:30;;;;;;;51.80;21.40;;;;;;;0.61;76.73;100303.94;103018;1316;22603;-57
2021/11/25 01:24:01;;;;;;;57.70;23.70;;;;;;;0.60;76.86;100300.42;102938;1312;24225;-59
2021/11/25 01:26:32;;;;;;;58.80;23.40;;;;;;;0.60;77.03;100295.80;103000;1317;25320;-57
2021/11/25 01:29:04;;;;;;;57.10;24.00;;;;;;;0.59;77.00;100293.06;102931;1314;22570;-57
2021/11/25 01:31:35;;;;;;;58.20;23.70;;;;;;;0.55;77.04;100287.30;102988;1316;22554;-57
2021/11/25 01:34:06;;;;;;;54.30;23.60;;;;;;;0.53;77.00;100281.21;103028;1312;22564;-58
2021/11/25 01:36:38;;;;;;;55.30;23.10;;;;;;;0.50;77.19;100274.88;102896;1319;24307;-57
2021/11/25 01:39:10;;;;;;;52.20;23.10;;;;;;;0.49;77.26;100275.69;103051;1312;22776;-56
2021/11/25 01:41:43;;;;;;;57.80;22.40;;;;;;;0.46;77.19;100268.48;103019;1312;23011;-57
2021/11/25 01:44:14;;;;;;;53.80;21.60;;;;;;;0.42;77.18;100265.48;103025;1312;22676;-57
2021/11/25 01:46:46;;;;;;;51.00;21.10;;;;;;;0.40;77.24;100262.69;103116;1312;25552;-58
2021/11/25 01:49:20;;;;;;;52.20;21.00;;;;;;;0.36;77.16;100255.83;102929;1313;26598;-57
2021/11/25 01:51:51;;;;;;;58.40;24.10;;;;;;;0.32;77.28;100250.92;103073;1319;25438;-58
2021/11/25 01:54:25;;;;;;;54.70;22.40;;;;;;;0.31;77.30;100249.77;102976;1312;25612;-58
2021/11/25 01:56:57;;;;;;;57.30;23.00;;;;;;;0.26;77.11;100243.38;103087;1312;25253;-56
2021/11/25 01:59:28;;;;;;;54.10;21.70;;;;;;;0.24;77.15;100243.41;102897;1312;24215;-59
2021/11/25 02:02:02;;;;;;;66.50;25.10;;;;;;;0.20;77.19;100242.66;102749;1309;22732;-57
2021/11/25 02:04:33;;;;;;;72.80;27.90;;;;;;;0.18;77.19;100241.20;103118;1316;25427;-58
2021/11/25 02:07:05;;;;;;;68.00;27.00;;;;;;;0.15;77.13;100232.45;103027;1319;22680;-59
2021/11/25 02:09:38;;;;;;;58.50;24.70;;;;;;;0.11;77.29;100228.64;102875;1313;22551;-58
2021/11/25 02:12:10;;;;;;;54.40;23.80;;;;;;;0.10;77.38;100228.81;102910;1312;22654;-58
2021/11/25 02:20:04;;;;;;;57.80;24.80;;;;;;;0.04;77.44;100217.83;106206;1302;81135;-78
2021/11/25 02:22:36;;;;;;;56.80;23.60;;;;;;;0.01;77.30;100216.84;103385;1318;24279;-78
2021/11/25 02:25:09;;;;;;;65.60;26.80;;;;;;;-0.05;77.28;100211.88;103427;1312;22586;-78
2021/11/25 02:27:41;;;;;;;71.50;29.80;;;;;;;-0.09;77.22;100206.59;103436;1316;26684;-78
2021/11/25 02:30:15;;;;;;;81.80;32.80;;;;;;;-0.14;77.19;100203.10;103540;1317;22762;-78
2021/11/25 02:32:48;;;;;;;74.10;31.60;;;;;;;-0.19;77.32;100202.60;103514;1313;23310;-78
2021/11/25 02:35:22;;;;;;;74.60;31.10;;;;;;;-0.24;77.44;100193.41;103641;1312;22582;-78
2021/11/25 02:37:55;;;;;;;71.50;28.50;;;;;;;-0.27;77.46;100194.70;103837;1313;22654;-78
2021/11/25 02:40:32;;;;;;;61.60;26.80;;;;;;;-0.31;77.54;100187.61;104016;1319;22578;-79
2021/11/25 02:43:06;;;;;;;60.90;25.40;;;;;;;-0.35;77.58;100189.92;104068;1318;26658;-79
2021/11/25 02:45:49;;;;;;;52.10;23.40;;;;;;;-0.37;77.67;100180.21;103691;1319;22928;-78
2021/11/25 02:48:22;;;;;;;56.10;24.50;;;;;;;-0.39;77.71;100172.40;103800;1317;22577;-78
2021/11/25 02:50:54;;;;;;;59.60;24.90;;;;;;;-0.41;77.72;100168.42;103571;1312;22779;-77
2021/11/25 02:53:28;;;;;;;55.80;23.80;;;;;;;-0.42;77.78;100166.87;103424;1319;24362;-79
2021/11/25 02:56:01;;;;;;;61.00;26.50;;;;;;;-0.45;77.74;100160.00;104019;1319;22639;-79
2021/11/25 02:58:32;;;;;;;55.40;24.50;;;;;;;-0.47;77.86;100152.58;104021;1312;22754;-79
2021/11/25 03:01:07;;;;;;;64.80;26.60;;;;;;;-0.50;77.87;100143.67;103909;1319;22883;-79
2021/11/25 03:03:39;;;;;;;65.30;28.20;;;;;;;-0.52;77.96;100142.52;104050;1319;22602;-79
2021/11/25 03:06:10;;;;;;;59.70;25.50;;;;;;;-0.53;77.94;100140.50;103992;1316;24307;-78
2021/11/25 03:08:43;;;;;;;60.70;25.60;;;;;;;-0.55;77.94;100138.33;104017;1317;24215;-78
2021/11/25 03:11:17;;;;;;;61.00;25.10;;;;;;;-0.58;77.91;100128.95;104019;1319;22628;-79
2021/11/25 03:13:54;;;;;;;62.80;26.50;;;;;;;-0.61;77.99;100125.53;104037;1317;22724;-79
2021/11/25 03:16:26;;;;;;;62.40;25.20;;;;;;;-0.62;77.94;100133.54;104056;1312;22808;-78
2021/11/25 03:18:57;;;;;;;64.40;26.10;;;;;;;-0.64;77.86;100133.16;104070;1318;22603;-76
2021/11/25 03:21:29;;;;;;;61.80;27.80;;;;;;;-0.68;77.81;100125.05;103470;1316;22574;-76
2021/11/25 03:24:00;;;;;;;71.40;29.80;;;;;;;-0.72;77.80;100120.31;103454;1313;22948;-76
2021/11/25 03:26:31;;;;;;;74.90;31.00;;;;;;;-0.77;77.84;100113.15;103283;1319;22640;-77
2021/11/25 03:29:03;;;;;;;70.20;29.60;;;;;;;-0.81;77.83;100102.77;103347;1315;22634;-77
2021/11/25 03:31:35;;;;;;;77.30;30.20;;;;;;;-0.82;77.93;100100.36;103540;1313;24247;-78
2021/11/25 03:34:07;;;;;;;73.90;31.60;;;;;;;-0.85;77.86;100099.83;103416;1319;24419;-78
2021/11/25 03:36:39;;;;;;;66.50;28.10;;;;;;;-0.90;77.79;100097.84;103416;1316;25440;-78
2021/11/25 03:39:10;;;;;;;57.50;26.30;;;;;;;-0.93;77.76;100088.55;103228;1316;213348;-78
2021/11/25 03:41:41;;;;;;;62.70;25.80;;;;;;;-0.96;77.87;100085.37;103412;1313;25400;-77
2021/11/25 03:44:11;;;;;;;57.80;25.70;;;;;;;-1.00;77.84;100076.33;103416;1319;25508;-77
2021/11/25 03:46:43;;;;;;;56.70;25.40;;;;;;;-1.02;77.82;100075.09;103384;1312;22718;-77
2021/11/25 03:49:14;;;;;;;60.40;26.20;;;;;;;-1.04;77.93;100070.33;103396;1319;23303;-78
2021/11/25 03:51:45;;;;;;;56.60;24.30;;;;;;;-1.06;77.97;100065.73;103381;1319;22651;-78
2021/11/25 03:54:15;;;;;;;56.40;21.90;;;;;;;-1.06;78.17;100058.07;103412;1313;24279;-77
2021/11/25 03:56:46;;;;;;;57.40;25.90;;;;;;;-1.07;78.13;100053.61;103458;1319;25679;-77
2021/11/25 03:59:17;;;;;;;61.40;25.70;;;;;;;-1.08;78.21;100043.76;103397;1316;22791;-77
2021/11/25 04:01:51;;;;;;;65.90;27.20;;;;;;;-1.10;78.10;100033.67;103374;1312;22559;-77
2021/11/25 04:04:21;;;;;;;70.90;28.90;;;;;;;-1.12;78.16;100036.50;103333;1318;22643;-78
2021/11/25 04:06:52;;;;;;;71.70;28.60;;;;;;;-1.14;78.13;100035.05;103326;1319;24365;-77
2021/11/25 04:09:23;;;;;;;67.30;27.20;;;;;;;-1.16;78.27;100034.59;103394;1316;25534;-77
2021/11/25 04:11:55;;;;;;;57.40;24.90;;;;;;;-1.17;78.21;100030.92;103510;1319;23936;-77
2021/11/25 04:14:26;;;;;;;67.00;29.30;;;;;;;-1.21;78.08;100028.14;103412;1319;24909;-78
2021/11/25 04:16:59;;;;;;;69.60;27.30;;;;;;;-1.24;78.03;100022.61;103326;1318;24440;-78
2021/11/25 04:19:30;;;;;;;79.80;34.30;;;;;;;-1.27;78.01;100016.31;103369;1315;24327;-77
2021/11/25 04:22:02;;;;;;;81.00;39.40;;;;;;;-1.30;78.14;100012.96;103370;1320;25749;-77
2021/11/25 04:24:33;;;;;;;101.90;43.70;;;;;;;-1.32;78.08;100011.02;103348;1320;22619;-77
2021/11/25 04:27:03;;;;;;;101.50;44.00;;;;;;;-1.34;78.08;100007.60;103285;1315;22555;-78
2021/11/25 04:29:37;;;;;;;118.50;59.00;;;;;;;-1.37;78.10;100001.84;103400;1316;25705;-78
2021/11/25 04:37:46;;;;;;;109.80;56.80;;;;;;;-1.38;78.44;100000.13;106489;1315;22487;-77
2021/11/25 04:40:17;;;;;;;123.40;62.10;;;;;;;-1.40;78.51;99997.95;106534;1318;22266;-78
2021/11/25 04:42:48;;;;;;;133.60;65.50;;;;;;;-1.41;78.42;99993.90;106545;1319;22650;-78
2021/11/25 04:45:20;;;;;;;154.30;73.40;;;;;;;-1.43;78.32;99985.94;106551;1319;22293;-78
2021/11/25 04:47:51;;;;;;;165.60;75.40;;;;;;;-1.45;78.39;99979.22;104342;1318;22630;-78
2021/11/25 04:50:22;;;;;;;187.10;78.50;;;;;;;-1.48;78.22;99969.79;103427;1313;22634;-78
2021/11/25 04:52:55;;;;;;;173.50;73.80;;;;;;;-1.50;78.13;99966.28;103516;1318;22783;-78
2021/11/25 04:55:27;;;;;;;189.50;79.90;;;;;;;-1.51;78.15;99956.90;103414;1312;22589;-76
2021/11/25 04:57:59;;;;;;;176.60;75.00;;;;;;;-1.53;78.09;99958.95;103505;1320;26781;-75
2021/11/25 05:00:29;;;;;;;173.20;75.20;;;;;;;-1.57;78.11;99953.20;103452;1319;24318;-77
2021/11/25 05:03:00;;;;;;;174.40;72.30;;;;;;;-1.59;78.06;99951.81;103441;1316;23701;-77
2021/11/25 05:05:32;;;;;;;159.50;71.40;;;;;;;-1.62;77.94;99950.27;103266;1312;23008;-76
2021/11/25 05:08:03;;;;;;;156.70;68.50;;;;;;;-1.67;78.01;99948.59;103297;1315;25761;-76
2021/11/25 05:10:34;;;;;;;140.70;61.40;;;;;;;-1.70;78.02;99945.33;103314;1318;24257;-77
2021/11/25 05:13:06;;;;;;;138.20;60.50;;;;;;;-1.73;78.00;99940.98;103273;1319;25601;-77
2021/11/25 05:15:37;;;;;;;130.80;58.20;;;;;;;-1.76;77.84;99942.73;103364;1318;25568;-77
2021/11/25 05:18:09;;;;;;;118.50;52.50;;;;;;;-1.81;77.81;99935.10;103416;1319;22645;-77
2021/11/25 05:20:40;;;;;;;108.10;48.20;;;;;;;-1.83;77.95;99931.99;103534;1318;23315;-77
2021/11/25 05:23:11;;;;;;;95.20;42.20;;;;;;;-1.84;78.10;99926.52;103522;1319;22759;-76
2021/11/25 05:25:41;;;;;;;95.20;42.80;;;;;;;-1.84;78.28;99927.77;103534;1319;22716;-76
2021/11/25 05:28:10;;;;;;;;;;;;;;;-1.85;78.42;99927.70;103460;1318;25540;-76
2021/11/25 05:30:41;;;;;;;87.80;36.90;;;;;;;-1.86;78.59;99924.89;103472;1319;25382;-76
2021/11/25 05:33:13;;;;;;;87.30;38.50;;;;;;;-1.86;78.62;99927.63;103543;1313;22665;-76
2021/11/25 05:35:44;;;;;;;85.30;37.00;;;;;;;-1.86;78.63;99920.75;103483;1319;22857;-76
2021/11/25 05:38:16;;;;;;;83.30;36.00;;;;;;;-1.86;78.60;99916.06;103472;1319;22798;-76
2021/11/25 05:40:48;;;;;;;80.60;36.60;;;;;;;-1.86;78.83;99918.55;103481;1313;25632;-76
2021/11/25 05:43:19;;;;;;;79.40;34.90;;;;;;;-1.86;78.87;99920.13;103365;1319;25773;-76
2021/11/25 05:45:51;;;;;;;75.50;34.90;;;;;;;-1.86;78.78;99923.80;103350;1319;24266;-76
2021/11/25 05:48:23;;;;;;;81.40;36.90;;;;;;;-1.87;78.82;99920.21;103405;1318;22949;-76
2021/11/25 05:50:55;;;;;;;92.00;38.20;;;;;;;-1.87;78.99;99913.65;105216;1312;25513;-75
2021/11/25 05:53:26;;;;;;;99.10;41.40;;;;;;;-1.87;78.80;99912.17;103366;1320;22683;-75
2021/11/25 05:55:57;;;;;;;103.40;41.80;;;;;;;-1.88;78.91;99913.02;103470;1318;22647;-75
2021/11/25 05:58:27;;;;;;;98.00;39.60;;;;;;;-1.90;78.96;99907.03;103457;1319;23562;-75
2021/11/25 06:00:58;;;;;;;93.40;41.50;;;;;;;-1.92;78.78;99907.36;103534;1313;22759;-77
2021/11/25 06:03:29;;;;;;;93.90;40.90;;;;;;;-1.94;78.65;99911.14;103555;1319;25521;-76
2021/11/25 06:06:00;;;;;;;83.10;38.10;;;;;;;-1.96;78.54;99915.21;103409;1318;24449;-75
2021/11/25 06:08:32;;;;;;;82.20;37.30;;;;;;;-1.99;78.59;99914.77;103481;1319;22653;-75
2021/11/25 06:11:05;;;;;;;76.60;32.90;;;;;;;-2.02;78.45;99915.71;103764;1319;22631;-75
2021/11/25 06:13:36;;;;;;;76.20;34.10;;;;;;;-2.05;78.28;99915.13;103506;1318;24747;-75
2021/11/25 06:16:08;;;;;;;72.30;31.40;;;;;;;-2.08;78.34;99909.98;103520;1318;25649;-75
2021/11/25 06:18:39;;;;;;;78.60;32.50;;;;;;;-2.11;78.38;99902.89;103508;1319;22789;-75
2021/11/25 06:21:10;;;;;;;72.30;31.40;;;;;;;-2.13;78.50;99908.94;103492;1318;22848;-75
2021/11/25 06:23:41;;;;;;;68.90;33.40;;;;;;;-2.14;78.84;99913.16;103350;1313;22934;-75
2021/11/25 06:26:12;;;;;;;75.80;34.00;;;;;;;-2.12;78.94;99906.34;103332;1318;22772;-75
2021/11/25 06:28:43;;;;;;;74.80;32.90;;;;;;;-2.12;78.88;99902.44;103408;1319;22736;-75
2021/11/25 06:31:13;;;;;;;72.80;33.10;;;;;;;-2.13;78.99;99900.57;103447;1319;22755;-76
2021/11/25 06:33:44;;;;;;;74.80;32.90;;;;;;;-2.11;79.17;99897.90;103950;1319;25615;-80
2021/11/25 06:36:15;;;;;;;70.70;32.70;;;;;;;-2.09;79.23;99899.98;104053;1313;24368;-80
2021/11/25 06:38:46;;;;;;;80.60;34.20;;;;;;;-2.07;79.28;99897.08;104269;1319;22572;-78
2021/11/25 06:41:17;;;;;;;96.70;41.40;;;;;;;-2.06;79.21;99896.52;104013;1318;22611;-78
2021/11/25 06:43:48;;;;;;;99.50;43.30;;;;;;;-2.05;79.27;99897.94;103902;1319;22770;-78
2021/11/25 06:46:19;;;;;;;88.70;42.10;;;;;;;-2.05;79.31;99897.15;104029;1319;24276;-78
2021/11/25 06:48:49;;;;;;;90.30;42.20;;;;;;;-2.04;79.48;99907.69;104125;1317;22626;-79
2021/11/25 06:51:20;;;;;;;88.40;39.10;;;;;;;-2.05;79.57;99901.29;104098;1313;24179;-79
2021/11/25 06:53:51;;;;;;;89.40;40.10;;;;;;;-2.04;79.36;99898.16;104019;1313;22607;-78
2021/11/25 06:56:22;;;;;;;83.30;37.20;;;;;;;-2.04;79.32;99900.81;104397;1319;22762;-80
2021/11/25 06:58:55;;;;;;;100.20;46.30;;;;;;;-2.06;79.39;99899.26;104365;1318;22619;-80
2021/11/25 07:01:27;;;;;;;104.20;49.00;;;;;;;-2.05;79.51;99897.23;104429;1312;22636;-81
2021/11/25 07:03:59;;;;;;;105.70;50.90;;;;;;;-2.05;79.49;99893.01;104492;1312;22591;-81
2021/11/25 07:06:30;;;;;;;97.30;48.50;;;;;;;-2.05;79.55;99888.46;104279;1316;22643;-79
2021/11/25 07:09:01;;;;;;;94.10;42.80;;;;;;;-2.04;79.69;99889.71;103836;1317;23524;-78
2021/11/25 07:11:32;;;;;;;80.20;39.20;;;;;;;-2.02;79.82;99894.47;103994;1319;25652;-78
2021/11/25 07:14:04;;;;;;;87.80;42.30;;;;;;;-1.99;79.96;99890.30;103902;1313;22616;-78
2021/11/25 07:16:35;;;;;;;87.80;39.20;;;;;;;-1.97;80.28;99886.13;103986;1319;22711;-79
2021/11/25 07:19:07;;;;;;;78.90;36.00;;;;;;;-1.92;80.62;99879.45;104343;1318;24233;-77
2021/11/25 07:21:37;;;;;;;70.70;32.70;;;;;;;-1.86;80.96;99882.14;103650;1318;23488;-77
2021/11/25 07:24:08;;;;;;;59.50;28.30;;;;;;;-1.79;80.87;99886.38;103545;1319;22624;-77
2021/11/25 07:26:41;;;;;;;43.20;17.40;;;;;;;-1.72;81.46;99886.69;103540;1313;26971;-77
2021/11/25 07:29:12;;;;;;;49.50;21.60;;;;;;;-1.53;82.08;99891.30;103538;1318;22765;-77
2021/11/25 07:31:43;;;;;;;50.30;21.20;;;;;;;-1.35;82.06;99887.91;103638;1313;22816;-77
2021/11/25 07:34:14;;;;;;;51.10;23.30;;;;;;;-1.19;82.11;99885.78;103680;1312;22649;-77
2021/11/25 07:36:45;;;;;;;58.00;23.00;;;;;;;-1.06;82.04;99885.16;103728;1318;24211;-78
2021/11/25 07:39:16;;;;;;;60.00;25.20;;;;;;;-0.94;81.91;99883.85;103675;1318;23032;-78
2021/11/25 07:41:47;;;;;;;59.40;28.10;;;;;;;-0.85;81.63;99882.31;103989;1312;24232;-79
2021/11/25 07:44:18;;;;;;;56.40;25.90;;;;;;;-0.79;81.73;99878.55;104126;1314;22644;-79
2021/11/25 07:46:50;;;;;;;58.10;26.80;;;;;;;-0.72;81.65;99877.61;103986;1319;22782;-79
2021/11/25 07:49:22;;;;;;;62.50;26.70;;;;;;;-0.65;81.91;99877.20;104351;1313;25573;-79
2021/11/25 07:51:59;;;;;;;54.50;22.90;;;;;;;-0.56;82.15;99875.03;104219;1317;22722;-79
2021/11/25 07:54:29;;;;;;;55.90;21.50;;;;;;;-0.42;82.36;99870.06;104365;1317;23397;-79
2021/11/25 07:57:01;;;;;;;48.60;22.00;;;;;;;-0.30;82.39;99870.35;104231;1313;23072;-79
2021/11/25 07:59:32;;;;;;;43.10;17.00;;;;;;;-0.16;82.59;99860.81;104211;1317;22921;-79
2021/11/25 08:02:03;;;;;;;47.50;21.60;;;;;;;0.03;82.64;99850.16;103923;1319;22837;-79
2021/11/25 08:04:34;;;;;;;46.30;19.70;;;;;;;0.20;82.58;99836.45;103864;1313;24182;-79
2021/11/25 08:07:05;;;;;;;39.50;16.70;;;;;;;0.39;82.33;99827.26;103800;1319;22611;-78
2021/11/25 08:09:36;;;;;;;42.10;19.70;;;;;;;0.55;82.19;99814.88;103672;1318;24235;-78
2021/11/25 08:12:09;;;;;;;43.50;17.30;;;;;;;0.70;81.88;99815.73;103415;1313;25279;-78
2021/11/25 08:14:40;;;;;;;43.90;20.10;;;;;;;0.85;81.76;99821.28;103610;1312;22593;-79
2021/11/25 08:17:10;;;;;;;49.60;20.40;;;;;;;0.97;81.44;99822.27;104029;1313;22629;-80
2021/11/25 08:19:42;;;;;;;49.90;20.70;;;;;;;1.04;81.27;99827.53;103445;1316;22614;-79
2021/11/25 08:22:15;;;;;;;43.40;16.90;;;;;;;1.11;81.25;99828.02;103511;1319;22623;-80
2021/11/25 08:24:46;;;;;;;39.30;15.50;;;;;;;1.18;81.09;99827.09;103487;1318;23065;-81
2021/11/25 08:27:17;;;;;;;42.70;19.10;;;;;;;1.28;80.97;99829.23;103927;1316;22636;-80
2021/11/25 08:29:48;;;;;;;46.70;20.70;;;;;;;1.35;81.00;99827.80;103997;1313;24263;-80
2021/11/25 08:32:19;;;;;;;49.60;21.00;;;;;;;1.43;80.92;99822.75;103981;1317;22568;-80
2021/11/25 08:34:50;;;;;;;46.40;21.50;;;;;;;1.50;80.71;99818.91;103987;1313;22628;-80
2021/11/25 08:37:21;;;;;;;52.40;21.00;;;;;;;1.56;80.57;99810.90;103955;1318;27143;-80
2021/11/25 08:39:52;;;;;;;43.10;18.40;;;;;;;1.64;80.54;99805.75;103947;1318;22783;-80
2021/11/25 08:42:24;;;;;;;48.80;20.60;;;;;;;1.72;80.41;99799.91;104080;1318;26078;-81
2021/11/25 08:44:55;;;;;;;41.10;18.10;;;;;;;1.78;80.23;99796.28;104616;1317;22687;-81
2021/11/25 08:47:27;;;;;;;48.90;22.10;;;;;;;1.85;80.17;99795.58;104702;1313;23321;-81
2021/11/25 08:49:58;;;;;;;42.20;18.10;;;;;;;1.91;80.15;99797.41;104600;1313;24362;-80
2021/11/25 08:52:28;;;;;;;45.10;19.00;;;;;;;1.97;80.03;99788.42;104557;1318;25407;-81
2021/11/25 08:54:59;;;;;;;43.40;18.40;;;;;;;2.03;79.93;99794.20;104546;1313;22590;-80
2021/11/25 08:57:30;;;;;;;44.90;19.40;;;;;;;2.08;79.93;99793.97;104016;1317;25397;-80
2021/11/25 09:00:01;;;;;;;46.10;17.90;;;;;;;2.13;79.81;99795.34;103924;1313;25474;-80
2021/11/25 09:02:32;;;;;;;41.20;14.40;;;;;;;2.20;79.62;99793.42;104009;1312;22596;-80
2021/11/25 09:05:03;;;;;;;42.20;19.70;;;;;;;2.27;79.55;99783.17;104273;1310;22596;-81
2021/11/25 09:07:34;;;;;;;44.50;19.40;;;;;;;2.33;79.49;99786.38;104238;1313;22656;-79
2021/11/25 09:10:09;;;;;;;45.90;19.20;;;;;;;2.39;79.64;99787.41;103793;1317;22610;-81
2021/11/25 09:12:40;;;;;;;47.70;21.40;;;;;;;2.44;79.50;99785.05;104686;1319;22562;-81
2021/11/25 09:15:11;;;;;;;42.20;18.60;;;;;;;2.51;79.29;99782.59;104536;1313;22620;-81
2021/11/25 09:17:42;;;;;;;44.90;18.30;;;;;;;2.58;79.16;99781.70;104674;1313;22608;-81
2021/11/25 09:20:13;;;;;;;43.80;19.50;;;;;;;2.63;79.04;99783.52;104699;1312;23474;-81
2021/11/25 09:22:45;;;;;;;47.40;21.20;;;;;;;2.68;78.89;99779.91;104707;1317;22640;-81
2021/11/25 09:25:15;;;;;;;44.00;20.30;;;;;;;2.74;78.82;99779.17;104567;1313;23247;-80
2021/11/25 09:27:48;;;;;;;39.10;17.10;;;;;;;2.79;78.72;99773.46;104500;1319;22537;-81
2021/11/25 09:30:21;;;;;;;38.40;15.60;;;;;;;2.84;78.37;99766.61;104521;1317;22897;-81
2021/11/25 09:32:52;;;;;;;48.10;19.80;;;;;;;2.90;78.48;99759.27;104804;1318;23971;-81
2021/11/25 09:35:23;;;;;;;40.50;17.60;;;;;;;2.93;78.36;99752.08;104503;1316;24238;-81
2021/11/25 09:37:55;;;;;;;42.30;18.40;;;;;;;2.99;78.29;99749.88;104536;1311;22590;-81
2021/11/25 09:40:28;;;;;;;42.50;18.20;;;;;;;3.04;78.24;99746.88;104469;1312;24487;-82
2021/11/25 09:43:01;;;;;;;44.60;19.20;;;;;;;3.07;78.32;99743.56;104673;1312;22641;-82
2021/11/25 09:45:34;;;;;;;45.60;19.80;;;;;;;3.10;78.36;99739.52;104689;1319;24275;-81
2021/11/25 09:48:08;;;;;;;40.80;17.20;;;;;;;3.15;77.97;99734.23;104105;1312;26563;-81
2021/11/25 09:50:43;;;;;;;44.50;17.90;;;;;;;3.19;77.80;99728.14;104200;1318;22650;-80
2021/11/25 09:53:17;;;;;;;38.60;17.40;;;;;;;3.25;77.90;99723.05;104423;1316;25252;-81
2021/11/25 09:55:51;;;;;;;42.30;18.90;;;;;;;3.30;77.55;99718.09;104516;1312;22657;-81
2021/11/25 09:58:26;;;;;;;46.80;19.90;;;;;;;3.33;77.40;99720.91;104161;1312;24365;-81
2021/11/25 10:01:02;;;;;;;45.30;18.90;;;;;;;3.38;77.61;99716.73;104596;1316;25281;-80
2021/11/25 10:03:34;;;;;;;42.30;18.10;;;;;;;3.42;77.45;99717.64;104052;1319;22584;-80
2021/11/25 10:06:05;;;;;;;42.60;18.00;;;;;;;3.46;77.25;99713.17;104072;1312;26593;-80
2021/11/25 10:08:40;;;;;;;35.40;15.60;;;;;;;3.50;77.17;99711.99;103918;1313;25284;-80
2021/11/25 10:11:13;;;;;;;42.70;18.60;;;;;;;3.55;76.92;99709.48;103999;1313;22534;-80
2021/11/25 10:13:47;;;;;;;48.10;20.50;;;;;;;3.61;76.93;99704.62;103973;1319;24237;-80
2021/11/25 10:16:23;;;;;;;34.20;13.40;;;;;;;3.66;76.80;99703.60;104443;1313;22750;-80
2021/11/25 10:18:55;;;;;;;45.10;18.60;;;;;;;3.70;76.32;99693.92;104234;1318;22656;-83
2021/11/25 10:21:29;;;;;;;37.30;16.20;;;;;;;3.73;76.74;99692.79;104473;1316;22627;-81
2021/11/25 10:24:00;;;;;;;41.20;18.90;;;;;;;3.78;76.64;99697.03;104601;1312;24261;-82
2021/11/25 10:26:32;;;;;;;42.10;16.80;;;;;;;3.82;76.44;99691.30;104422;1317;25275;-80
2021/11/25 10:29:07;;;;;;;39.10;16.80;;;;;;;3.85;76.42;99688.73;104226;1317;25401;-82
2021/11/25 10:31:41;;;;;;;38.60;17.50;;;;;;;3.89;76.22;99687.98;104485;1318;22537;-81
2021/11/25 10:34:16;;;;;;;40.80;16.70;;;;;;;3.93;76.25;99688.70;104082;1319;22574;-79
2021/11/25 10:36:56;;;;;;;39.60;17.50;;;;;;;3.96;76.09;99683.20;103774;1316;22524;-78
2021/11/25 10:40:09;;;;;;;36.70;16.40;;;;;;;4.00;75.94;99676.20;103588;1313;22593;-78
2021/11/25 10:42:43;;;;;;;41.30;17.20;;;;;;;4.05;75.79;99666.18;103431;1313;22581;-78
2021/11/25 10:45:16;;;;;;;38.60;16.30;;;;;;;4.09;75.97;99665.80;103497;1319;22798;-78
2021/11/25 10:47:57;;;;;;;42.20;18.60;;;;;;;4.14;75.66;99658.21;103494;1313;24559;-78
2021/11/25 10:50:27;;;;;;;;;;;;;;;4.16;75.59;99660.95;103771;1318;22558;-79
2021/11/25 10:53:04;;;;;;;45.80;18.40;;;;;;;4.19;75.41;99667.98;103688;1317;22571;-79
2021/11/25 10:55:37;;;;;;;41.50;18.20;;;;;;;4.21;75.40;99664.20;103872;1313;22581;-79
2021/11/25 10:58:10;;;;;;;42.20;18.70;;;;;;;4.23;75.30;99657.48;103633;1314;24503;-79
2021/11/25 11:00:45;;;;;;;44.40;19.50;;;;;;;4.25;75.46;99655.35;103599;1319;22552;-79
2021/11/25 11:03:22;;;;;;;44.90;20.60;;;;;;;4.29;75.62;99648.67;103731;1312;24237;-80
2021/11/25 11:05:57;;;;;;;43.90;19.00;;;;;;;4.31;75.76;99651.89;103754;1312;22580;-79
2021/11/25 11:08:29;;;;;;;45.40;21.00;;;;;;;4.35;75.64;99652.45;103600;1317;22770;-77
2021/11/25 11:11:02;;;;;;;42.40;18.90;;;;;;;4.39;75.76;99649.53;103566;1317;22806;-78
2021/11/25 11:13:39;;;;;;;44.30;20.80;;;;;;;4.44;75.65;99646.90;103501;1319;24256;-78
2021/11/25 11:19:01;;;;;;;48.40;23.10;;;;;;;4.54;75.65;99635.47;103550;1317;22610;-77
2021/11/25 11:21:37;;;;;;;48.20;21.70;;;;;;;4.59;75.75;99632.20;103682;1318;22603;-78
2021/11/25 11:24:10;;;;;;;50.50;22.20;;;;;;;4.64;75.60;99632.42;103558;1312;25385;-78
2021/11/25 11:26:45;;;;;;;45.30;20.70;;;;;;;4.67;75.33;99631.08;103487;1313;25357;-78
2021/11/25 11:29:20;;;;;;;43.80;19.70;;;;;;;4.70;75.12;99627.81;103705;1317;22559;-80
2021/11/25 11:31:54;;;;;;;40.30;17.70;;;;;;;4.71;74.14;99627.85;103646;1312;25248;-78
2021/11/25 11:34:29;;;;;;;34.50;16.50;;;;;;;4.70;74.11;99624.92;103406;1312;24297;-77
2021/11/25 11:37:00;;;;;;;46.00;20.70;;;;;;;4.69;74.36;99620.44;103498;1317;26552;-75
2021/11/25 11:39:34;;;;;;;40.50;17.90;;;;;;;4.71;74.29;99617.11;103206;1313;262249;-78
2021/11/25 11:42:07;;;;;;;49.50;22.70;;;;;;;4.73;74.42;99609.54;103493;1319;23454;-79
2021/11/25 11:44:43;;;;;;;45.00;19.70;;;;;;;4.76;74.58;99597.23;103470;1312;23413;-77